createdAt,value
2019-05-18T00:00:51.699Z,12.68
2019-05-18T00:03:19.295Z,12.67
2019-05-18T00:05:46.824Z,12.58
2019-05-18T00:08:14.269Z,12.52
2019-05-18T00:10:41.738Z,12.55
2019-05-18T00:13:09.223Z,12.58
2019-05-18T00:15:36.694Z,12.56
2019-05-18T00:18:04.213Z,12.52
2019-05-18T00:20:31.691Z,12.49
2019-05-18T00:22:59.185Z,12.45
2019-05-18T00:25:26.705Z,12.40
2019-05-18T00:27:54.181Z,12.32
2019-05-18T00:30:21.973Z,12.29
2019-05-18T00:32:49.479Z,12.28
2019-05-18T00:35:17.016Z,12.29
2019-05-18T00:37:44.488Z,12.37
2019-05-18T00:40:12.003Z,12.42
2019-05-18T00:42:39.533Z,12.48
2019-05-18T00:45:07.005Z,12.50
2019-05-18T00:47:41.249Z,12.55
2019-05-18T00:50:01.983Z,12.56
2019-05-18T00:52:29.472Z,12.52
2019-05-18T00:54:56.955Z,12.49
2019-05-18T00:57:24.464Z,12.47
2019-05-18T00:59:51.917Z,12.46
2019-05-18T01:02:19.394Z,12.39
2019-05-18T01:04:46.893Z,12.30
2019-05-18T01:07:14.442Z,12.25
2019-05-18T01:09:41.946Z,12.19
2019-05-18T01:12:09.422Z,12.20
2019-05-18T01:14:36.882Z,12.25
2019-05-18T01:17:04.336Z,12.25
2019-05-18T01:19:31.794Z,12.20
2019-05-18T01:21:59.284Z,12.13
2019-05-18T01:24:26.780Z,12.10
2019-05-18T01:26:54.501Z,12.16
2019-05-18T01:29:22.039Z,12.21
2019-05-18T01:31:49.828Z,12.23
2019-05-18T01:34:17.455Z,12.22
2019-05-18T01:36:45.036Z,12.20
2019-05-18T01:39:12.477Z,12.12
2019-05-18T01:41:39.934Z,12.12
2019-05-18T01:44:07.389Z,12.02
2019-05-18T01:46:34.955Z,11.97
2019-05-18T01:49:02.439Z,11.94
2019-05-18T01:51:29.939Z,12.04
2019-05-18T01:53:57.419Z,12.17
2019-05-18T01:56:24.936Z,12.16
2019-05-18T01:58:52.529Z,12.10
2019-05-18T02:01:20.060Z,12.10
2019-05-18T02:03:47.526Z,12.04
2019-05-18T02:06:15.013Z,12.03
2019-05-18T02:08:42.474Z,12.00
2019-05-18T02:11:09.967Z,11.91
2019-05-18T02:13:37.460Z,11.87
2019-05-18T02:16:04.949Z,11.83
2019-05-18T02:18:32.426Z,11.84
2019-05-18T02:20:59.934Z,11.85
2019-05-18T02:23:27.396Z,11.85
2019-05-18T02:25:54.960Z,11.85
2019-05-18T02:28:22.463Z,11.82
2019-05-18T02:30:49.946Z,11.84
2019-05-18T02:33:17.718Z,11.83
2019-05-18T02:35:45.193Z,11.77
2019-05-18T02:38:16.683Z,11.77
2019-05-18T02:40:45.145Z,11.77
2019-05-18T02:43:12.618Z,11.75
2019-05-18T02:45:40.224Z,11.80
2019-05-18T02:48:07.681Z,11.81
2019-05-18T02:50:35.207Z,11.86
2019-05-18T02:53:02.691Z,11.91
2019-05-18T02:55:30.221Z,11.92
2019-05-18T02:57:58.240Z,11.91
2019-05-18T03:00:25.771Z,11.99
2019-05-18T03:02:53.246Z,12.04
2019-05-18T03:05:20.737Z,12.09
2019-05-18T03:07:48.286Z,12.02
2019-05-18T03:10:15.805Z,11.94
2019-05-18T03:12:43.304Z,11.92
2019-05-18T03:15:10.777Z,11.83
2019-05-18T03:17:38.320Z,11.78
2019-05-18T03:20:05.795Z,11.78
2019-05-18T03:22:33.284Z,11.79
2019-05-18T03:25:00.740Z,11.85
2019-05-18T03:27:28.219Z,11.91
2019-05-18T03:29:55.712Z,11.97
2019-05-18T03:32:23.159Z,11.95
2019-05-18T03:34:50.691Z,12.03
2019-05-18T03:37:18.181Z,12.11
2019-05-18T03:39:45.701Z,12.14
2019-05-18T03:42:13.158Z,12.05
2019-05-18T03:44:40.666Z,11.85
2019-05-18T03:47:08.114Z,11.78
2019-05-18T03:49:35.895Z,11.80
2019-05-18T03:52:03.372Z,11.82
2019-05-18T03:54:30.864Z,11.83
2019-05-18T03:56:58.324Z,11.90
2019-05-18T03:59:25.813Z,11.93
2019-05-18T04:01:53.286Z,11.96
2019-05-18T04:04:20.810Z,11.91
2019-05-18T04:06:48.318Z,11.96
2019-05-18T04:09:15.890Z,11.89
2019-05-18T04:11:43.334Z,11.84
2019-05-18T04:14:11.161Z,11.82
2019-05-18T04:16:38.796Z,11.81
2019-05-18T04:19:06.322Z,11.84
2019-05-18T04:21:33.796Z,11.88
2019-05-18T04:24:01.266Z,11.94
2019-05-18T04:26:28.726Z,12.00
2019-05-18T04:28:56.212Z,12.02
2019-05-18T04:31:24.320Z,12.05
2019-05-18T04:33:52.841Z,12.10
2019-05-18T04:36:20.386Z,12.06
2019-05-18T04:38:47.880Z,11.95
2019-05-18T04:41:15.370Z,11.93
2019-05-18T04:43:42.851Z,11.92
2019-05-18T04:46:10.307Z,11.92
2019-05-18T04:48:37.834Z,11.88
2019-05-18T04:51:05.328Z,11.92
2019-05-18T04:53:32.814Z,12.01
2019-05-18T04:56:00.275Z,12.06
2019-05-18T04:58:27.775Z,12.13
2019-05-18T05:00:55.233Z,12.26
2019-05-18T05:03:22.732Z,12.36
2019-05-18T05:05:50.191Z,12.41
2019-05-18T05:08:17.681Z,12.45
2019-05-18T05:10:45.127Z,12.56
2019-05-18T05:13:12.621Z,12.65
2019-05-18T05:15:40.102Z,12.72
2019-05-18T05:18:07.591Z,12.77
2019-05-18T05:20:35.039Z,12.88
2019-05-18T05:23:02.539Z,12.95
2019-05-18T05:25:30.030Z,12.90
2019-05-18T05:27:57.532Z,12.88
2019-05-18T05:30:25.049Z,12.86
2019-05-18T05:32:52.539Z,12.86
2019-05-18T05:35:20.006Z,12.81
2019-05-18T05:37:47.476Z,12.80
2019-05-18T05:40:15.198Z,12.78
2019-05-18T05:42:42.679Z,12.78
2019-05-18T05:45:10.189Z,12.83
2019-05-18T05:47:37.673Z,12.82
2019-05-18T05:50:05.782Z,12.77
2019-05-18T05:52:33.263Z,12.81
2019-05-18T05:55:00.885Z,12.87
2019-05-18T05:57:28.399Z,12.94
2019-05-18T05:59:55.900Z,13.01
2019-05-18T06:02:23.417Z,13.10
2019-05-18T06:04:50.931Z,13.18
2019-05-18T06:07:18.397Z,13.22
2019-05-18T06:09:45.952Z,13.22
2019-05-18T06:12:13.410Z,13.31
2019-05-18T06:14:40.861Z,13.47
2019-05-18T06:17:08.619Z,13.60
2019-05-18T06:19:35.902Z,13.63
2019-05-18T06:22:03.422Z,13.73
2019-05-18T06:24:30.888Z,13.84
2019-05-18T06:26:58.412Z,13.95
2019-05-18T06:29:25.878Z,14.04
2019-05-18T06:31:53.375Z,14.07
2019-05-18T06:34:21.047Z,14.16
2019-05-18T06:36:48.538Z,14.27
2019-05-18T06:39:16.043Z,14.33
2019-05-18T06:41:43.667Z,14.31
2019-05-18T06:44:11.218Z,14.35
2019-05-18T06:46:39.091Z,14.24
2019-05-18T06:49:06.559Z,14.03
2019-05-18T06:51:34.030Z,13.94
2019-05-18T06:54:01.588Z,13.86
2019-05-18T06:56:29.119Z,13.93
2019-05-18T06:58:56.600Z,14.06
2019-05-18T07:01:24.114Z,14.18
2019-05-18T07:03:51.589Z,14.21
2019-05-18T07:06:19.047Z,14.21
2019-05-18T07:08:46.534Z,14.28
2019-05-18T07:11:14.985Z,14.42
2019-05-18T07:13:42.472Z,14.54
2019-05-18T07:16:09.931Z,14.62
2019-05-18T07:18:37.406Z,14.64
2019-05-18T07:21:04.847Z,14.67
2019-05-18T07:23:32.326Z,14.72
2019-05-18T07:25:59.866Z,14.80
2019-05-18T07:28:27.343Z,14.89
2019-05-18T07:30:54.827Z,14.98
2019-05-18T07:33:22.512Z,14.98
2019-05-18T07:35:50.167Z,15.06
2019-05-18T07:38:17.625Z,15.24
2019-05-18T07:40:45.162Z,15.51
2019-05-18T07:43:12.634Z,15.72
2019-05-18T07:45:41.004Z,15.75
2019-05-18T07:48:08.937Z,15.81
2019-05-18T07:50:36.811Z,15.93
2019-05-18T07:53:04.259Z,15.85
2019-05-18T07:55:31.771Z,15.78
2019-05-18T07:57:59.243Z,15.91
2019-05-18T08:00:26.754Z,16.25
2019-05-18T08:02:54.257Z,16.42
2019-05-18T08:05:21.734Z,16.68
2019-05-18T08:07:49.226Z,17.08
2019-05-18T08:10:16.761Z,17.63
2019-05-18T08:12:44.218Z,18.31
2019-05-18T08:15:11.750Z,18.68
2019-05-18T08:17:39.261Z,18.66
2019-05-18T08:20:06.771Z,18.62
2019-05-18T08:22:34.226Z,18.93
2019-05-18T08:25:01.711Z,19.26
2019-05-18T08:27:29.318Z,19.60
2019-05-18T08:29:56.820Z,20.23
2019-05-18T08:32:24.306Z,20.51
2019-05-18T08:34:51.986Z,20.33
2019-05-18T08:37:19.443Z,19.51
2019-05-18T08:39:47.511Z,19.58
2019-05-18T08:42:14.968Z,19.73
2019-05-18T08:44:42.421Z,19.81
2019-05-18T08:47:09.890Z,20.05
2019-05-18T08:49:37.381Z,20.20
2019-05-18T08:52:08.487Z,20.54
2019-05-18T08:54:31.692Z,20.50
2019-05-18T08:56:58.678Z,20.59
2019-05-18T08:59:25.738Z,20.81
2019-05-18T09:01:52.819Z,20.93
2019-05-18T09:04:19.864Z,20.57
2019-05-18T09:06:46.892Z,20.50
2019-05-18T09:09:13.896Z,20.58
2019-05-18T09:11:40.962Z,20.42
2019-05-18T09:14:08.321Z,20.22
2019-05-18T09:16:35.441Z,20.38
2019-05-18T09:19:02.517Z,20.46
2019-05-18T09:21:29.562Z,20.06
2019-05-18T09:23:56.868Z,19.92
2019-05-18T09:26:24.455Z,19.91
2019-05-18T09:28:51.569Z,20.03
2019-05-18T09:31:18.566Z,20.31
2019-05-18T09:33:45.559Z,20.31
2019-05-18T09:36:12.955Z,19.91
2019-05-18T09:38:40.004Z,20.11
2019-05-18T09:41:07.086Z,20.49
2019-05-18T09:43:34.158Z,20.43
2019-05-18T09:46:01.318Z,20.34
2019-05-18T09:48:28.492Z,20.16
2019-05-18T09:50:55.517Z,20.47
2019-05-18T09:53:22.532Z,20.78
2019-05-18T09:55:49.714Z,20.45
2019-05-18T09:58:16.788Z,20.13
2019-05-18T10:00:43.820Z,19.82
2019-05-18T10:03:10.899Z,19.44
2019-05-18T10:05:38.878Z,19.36
2019-05-18T10:08:05.981Z,19.27
2019-05-18T10:10:33.716Z,19.10
2019-05-18T10:13:00.089Z,19.42
2019-05-18T10:15:27.231Z,19.68
2019-05-18T10:17:54.258Z,19.83
2019-05-18T10:20:21.250Z,19.87
2019-05-18T10:22:59.152Z,19.74
2019-05-18T10:25:15.489Z,19.78
2019-05-18T10:27:42.633Z,19.44
2019-05-18T10:30:09.642Z,19.63
2019-05-18T10:32:36.830Z,20.07
2019-05-18T10:35:04.508Z,20.26
2019-05-18T10:37:31.845Z,19.81
2019-05-18T10:39:59.036Z,19.78
2019-05-18T10:42:26.066Z,19.51
2019-05-18T10:44:53.094Z,19.70
2019-05-18T10:47:20.186Z,20.12
2019-05-18T10:49:47.174Z,20.48
2019-05-18T10:52:14.182Z,20.25
2019-05-18T10:54:41.943Z,19.96
2019-05-18T10:57:08.983Z,19.78
2019-05-18T10:59:36.011Z,20.01
2019-05-18T11:02:03.046Z,20.38
2019-05-18T11:04:30.097Z,20.75
2019-05-18T11:06:57.136Z,21.04
2019-05-18T11:09:24.188Z,21.03
2019-05-18T11:11:51.205Z,20.94
2019-05-18T11:14:18.947Z,20.91
2019-05-18T11:16:45.464Z,20.63
2019-05-18T11:19:12.493Z,20.54
2019-05-18T11:21:39.555Z,20.56
2019-05-18T11:24:06.538Z,20.68
2019-05-18T11:26:33.598Z,20.84
2019-05-18T11:29:00.588Z,21.02
2019-05-18T11:31:27.665Z,21.33
2019-05-18T11:33:54.667Z,21.52
2019-05-18T11:36:21.697Z,21.19
2019-05-18T11:38:49.318Z,21.17
2019-05-18T11:41:16.415Z,21.23
2019-05-18T11:43:43.425Z,21.43
2019-05-18T11:46:11.650Z,21.42
2019-05-18T11:48:39.157Z,21.60
2019-05-18T11:51:06.644Z,21.73
2019-05-18T11:53:34.110Z,22.07
2019-05-18T11:56:01.621Z,22.45
2019-05-18T11:58:28.619Z,22.91
2019-05-18T12:00:55.718Z,22.65
2019-05-18T12:03:22.746Z,22.90
2019-05-18T12:05:49.766Z,23.05
2019-05-18T12:08:16.758Z,23.17
2019-05-18T12:10:43.854Z,23.22
2019-05-18T12:13:10.844Z,22.96
2019-05-18T12:15:37.912Z,22.24
2019-05-18T12:18:04.949Z,21.94
2019-05-18T12:20:31.971Z,21.83
2019-05-18T12:22:58.962Z,21.63
2019-05-18T12:25:25.976Z,21.52
2019-05-18T12:27:53.405Z,21.13
2019-05-18T12:30:20.943Z,20.96
2019-05-18T12:32:48.144Z,21.27
2019-05-18T12:35:15.367Z,21.54
2019-05-18T12:37:42.391Z,21.70
2019-05-18T12:40:09.573Z,21.65
2019-05-18T12:42:36.673Z,21.84
2019-05-18T12:45:03.712Z,21.96
2019-05-18T12:47:31.770Z,22.14
2019-05-18T12:49:58.911Z,22.72
2019-05-18T12:52:26.007Z,22.92
2019-05-18T12:54:53.511Z,22.90
2019-05-18T12:57:21.043Z,22.52
2019-05-18T12:59:48.640Z,22.30
2019-05-18T13:02:15.701Z,21.68
2019-05-18T13:04:42.741Z,21.66
2019-05-18T13:07:09.793Z,21.25
2019-05-18T13:09:36.841Z,20.88
2019-05-18T13:12:03.932Z,20.75
2019-05-18T13:14:30.934Z,20.62
2019-05-18T13:16:57.962Z,20.16
2019-05-18T13:19:26.030Z,19.81
2019-05-18T13:21:53.268Z,19.86
2019-05-18T13:24:20.445Z,19.74
2019-05-18T13:26:47.547Z,19.57
2019-05-18T13:29:14.593Z,19.46
2019-05-18T13:31:41.711Z,19.49
2019-05-18T13:34:08.759Z,19.67
2019-05-18T13:36:35.832Z,20.02
2019-05-18T13:39:02.842Z,20.35
2019-05-18T13:41:29.861Z,20.47
2019-05-18T13:43:57.607Z,20.41
2019-05-18T13:46:24.609Z,20.52
2019-05-18T13:48:51.611Z,20.48
2019-05-18T13:51:18.653Z,20.44
2019-05-18T13:53:45.662Z,20.02
2019-05-18T13:56:12.742Z,19.59
2019-05-18T13:58:39.819Z,19.42
2019-05-18T14:01:06.908Z,19.33
2019-05-18T14:03:33.945Z,19.37
2019-05-18T14:06:00.962Z,19.59
2019-05-18T14:08:27.977Z,19.80
2019-05-18T14:10:54.986Z,20.05
2019-05-18T14:13:21.980Z,20.10
2019-05-18T14:15:49.116Z,19.89
2019-05-18T14:18:16.097Z,19.68
2019-05-18T14:20:43.160Z,19.51
2019-05-18T14:23:10.197Z,19.37
2019-05-18T14:25:37.178Z,19.33
2019-05-18T14:28:04.189Z,19.16
2019-05-18T14:30:31.169Z,19.01
2019-05-18T14:32:58.249Z,19.09
2019-05-18T14:35:25.254Z,19.45
2019-05-18T14:37:52.297Z,19.62
2019-05-18T14:40:19.285Z,19.72
2019-05-18T14:42:46.312Z,19.78
2019-05-18T14:45:13.436Z,19.87
2019-05-18T14:47:40.678Z,19.78
2019-05-18T14:50:07.808Z,19.45
2019-05-18T14:52:34.914Z,19.27
2019-05-18T14:55:02.023Z,19.33
2019-05-18T14:57:29.157Z,19.26
2019-05-18T14:59:56.171Z,19.15
2019-05-18T15:02:23.393Z,19.00
2019-05-18T15:04:53.376Z,18.96
2019-05-18T15:07:17.500Z,19.04
2019-05-18T15:09:44.494Z,19.22
2019-05-18T15:12:11.543Z,19.23
2019-05-18T15:14:38.672Z,19.22
2019-05-18T15:17:05.693Z,19.16
2019-05-18T15:19:32.714Z,18.93
2019-05-18T15:21:59.762Z,18.86
2019-05-18T15:24:26.781Z,18.87
2019-05-18T15:26:53.938Z,18.91
2019-05-18T15:29:20.968Z,18.99
2019-05-18T15:31:48.172Z,19.12
2019-05-18T15:34:15.194Z,19.09
2019-05-18T15:36:42.194Z,19.09
2019-05-18T15:39:09.517Z,19.18
2019-05-18T15:41:36.671Z,19.11
2019-05-18T15:44:03.740Z,19.03
2019-05-18T15:46:30.814Z,18.89
2019-05-18T15:48:57.869Z,18.77
2019-05-18T15:51:24.903Z,18.84
2019-05-18T15:53:51.941Z,18.81
2019-05-18T15:56:19.453Z,18.74
2019-05-18T15:58:47.003Z,18.88
2019-05-18T16:01:14.497Z,19.06
2019-05-18T16:03:41.498Z,19.18
2019-05-18T16:06:08.562Z,19.23
2019-05-18T16:08:36.191Z,19.03
2019-05-18T16:11:03.407Z,18.80
2019-05-18T16:13:30.433Z,18.93
2019-05-18T16:15:57.437Z,19.04
2019-05-18T16:18:25.060Z,19.07
2019-05-18T16:20:52.606Z,19.01
2019-05-18T16:23:19.673Z,18.92
2019-05-18T16:25:46.820Z,18.95
2019-05-18T16:28:13.919Z,18.93
2019-05-18T16:30:41.391Z,18.84
2019-05-18T16:33:08.912Z,18.80
2019-05-18T16:35:35.907Z,18.79
2019-05-18T16:38:02.911Z,18.77
2019-05-18T16:40:30.262Z,18.78
2019-05-18T16:42:57.925Z,18.81
2019-05-18T16:45:25.012Z,18.77
2019-05-18T16:47:52.034Z,18.75
2019-05-18T16:50:19.090Z,18.75
2019-05-18T16:52:46.253Z,18.65
2019-05-18T16:55:13.294Z,18.49
2019-05-18T16:57:40.353Z,18.36
2019-05-18T17:00:10.026Z,18.35
2019-05-18T17:02:37.063Z,18.06
2019-05-18T17:05:04.041Z,17.79
2019-05-18T17:07:31.163Z,17.72
2019-05-18T17:09:58.164Z,17.61
2019-05-18T17:12:25.142Z,17.50
2019-05-18T17:14:52.127Z,17.50
2019-05-18T17:17:19.683Z,17.40
2019-05-18T17:19:47.345Z,17.23
2019-05-18T17:22:14.946Z,17.16
2019-05-18T17:24:42.427Z,17.12
2019-05-18T17:27:10.075Z,17.17
2019-05-18T17:29:37.580Z,17.24
2019-05-18T17:32:05.663Z,17.25
2019-05-18T17:34:33.134Z,17.29
2019-05-18T17:37:00.643Z,17.36
2019-05-18T17:39:28.138Z,17.40
2019-05-18T17:41:56.631Z,17.41
2019-05-18T17:44:24.969Z,17.42
2019-05-18T17:46:52.648Z,17.40
2019-05-18T17:49:26.694Z,17.42
2019-05-18T17:51:47.714Z,17.47
2019-05-18T17:54:14.762Z,17.48
2019-05-18T17:56:41.801Z,17.37
2019-05-18T17:59:08.820Z,17.31
2019-05-18T18:01:36.354Z,17.25
2019-05-18T18:04:03.938Z,17.24
2019-05-18T18:06:31.705Z,17.23
2019-05-18T18:08:59.217Z,17.18
2019-05-18T18:11:26.737Z,17.18
2019-05-18T18:13:53.837Z,17.17
2019-05-18T18:16:21.458Z,17.15
2019-05-18T18:18:48.942Z,17.19
2019-05-18T18:21:15.985Z,17.21
2019-05-18T18:23:42.998Z,17.22
2019-05-18T18:26:10.453Z,17.22
2019-05-18T18:28:38.051Z,17.26
2019-05-18T18:31:05.508Z,17.19
2019-05-18T18:33:33.000Z,17.16
2019-05-18T18:36:00.459Z,17.09
2019-05-18T18:38:27.935Z,16.99
2019-05-18T18:40:55.404Z,16.95
2019-05-18T18:43:23.084Z,16.91
2019-05-18T18:45:50.182Z,16.86
2019-05-18T18:48:17.753Z,16.85
2019-05-18T18:50:45.238Z,16.82
2019-05-18T18:53:12.770Z,16.78
2019-05-18T18:55:40.506Z,16.67
2019-05-18T18:58:07.604Z,16.59
2019-05-18T19:00:34.609Z,16.60
2019-05-18T19:03:02.055Z,16.55
2019-05-18T19:05:29.568Z,16.41
2019-05-18T19:07:57.072Z,16.32
2019-05-18T19:10:24.539Z,16.32
2019-05-18T19:12:52.095Z,16.38
2019-05-18T19:15:19.668Z,16.38
2019-05-18T19:17:47.130Z,16.35
2019-05-18T19:20:14.652Z,16.35
2019-05-18T19:22:42.235Z,16.31
2019-05-18T19:25:09.735Z,16.27
2019-05-18T19:27:37.476Z,16.23
2019-05-18T19:30:09.372Z,16.23
2019-05-18T19:32:32.987Z,16.20
2019-05-18T19:35:00.459Z,16.27
2019-05-18T19:37:27.969Z,16.32
2019-05-18T19:39:55.499Z,16.34
2019-05-18T19:42:23.396Z,16.36
2019-05-18T19:44:50.951Z,16.36
2019-05-18T19:47:18.526Z,16.38
2019-05-18T19:49:46.152Z,16.40
2019-05-18T19:52:13.852Z,16.38
2019-05-18T19:54:41.360Z,16.38
2019-05-18T19:57:08.911Z,16.38
2019-05-18T19:59:36.457Z,16.37
2019-05-18T20:02:04.096Z,16.32
2019-05-18T20:04:31.619Z,16.25
2019-05-18T20:06:59.152Z,16.13
2019-05-18T20:09:26.673Z,16.03
2019-05-18T20:11:54.256Z,15.95
2019-05-18T20:14:21.759Z,15.95
2019-05-18T20:16:49.376Z,15.96
2019-05-18T20:19:18.202Z,15.97
2019-05-18T20:21:45.823Z,16.00
2019-05-18T20:24:14.325Z,16.03
2019-05-18T20:26:41.857Z,16.06
2019-05-18T20:29:09.677Z,16.04
2019-05-18T20:31:37.212Z,15.97
2019-05-18T20:34:04.748Z,15.90
2019-05-18T20:36:32.271Z,15.83
2019-05-18T20:38:59.735Z,15.77
2019-05-18T20:41:27.288Z,15.72
2019-05-18T20:43:54.751Z,15.74
2019-05-18T20:46:22.279Z,15.69
2019-05-18T20:48:49.738Z,15.68
2019-05-18T20:51:17.239Z,15.69
2019-05-18T20:53:44.756Z,15.72
2019-05-18T20:56:12.240Z,15.73
2019-05-18T20:58:40.854Z,15.71
2019-05-18T21:01:07.306Z,15.74
2019-05-18T21:03:34.811Z,15.78
2019-05-18T21:06:02.366Z,15.79
2019-05-18T21:08:29.892Z,15.77
2019-05-18T21:10:57.370Z,15.77
2019-05-18T21:13:25.848Z,15.76
2019-05-18T21:15:53.343Z,15.79
2019-05-18T21:18:20.911Z,15.81
2019-05-18T21:20:48.450Z,15.79
2019-05-18T21:23:15.940Z,15.78
2019-05-18T21:25:43.610Z,15.79
2019-05-18T21:28:11.066Z,15.80
2019-05-18T21:30:38.599Z,15.78
2019-05-18T21:33:06.139Z,15.74
2019-05-18T21:35:33.625Z,15.77
2019-05-18T21:38:01.367Z,15.74
2019-05-18T21:40:29.004Z,15.71
2019-05-18T21:42:56.540Z,15.72
2019-05-18T21:45:24.157Z,15.68
2019-05-18T21:47:52.803Z,15.67
2019-05-18T21:50:20.575Z,15.61
2019-05-18T21:52:48.026Z,15.55
2019-05-18T21:55:15.576Z,15.58
2019-05-18T21:57:43.077Z,15.62
2019-05-18T22:00:10.594Z,15.71
2019-05-18T22:02:38.084Z,15.74
2019-05-18T22:05:05.568Z,15.77
2019-05-18T22:07:33.055Z,15.79
2019-05-18T22:10:00.617Z,15.78
2019-05-18T22:12:28.150Z,15.75
2019-05-18T22:14:55.638Z,15.65
2019-05-18T22:17:23.208Z,15.56
2019-05-18T22:19:50.729Z,15.47
2019-05-18T22:22:18.282Z,15.43
2019-05-18T22:24:46.538Z,15.40
2019-05-18T22:27:14.015Z,15.38
2019-05-18T22:29:41.609Z,15.36
2019-05-18T22:32:09.128Z,15.42
2019-05-18T22:34:36.769Z,15.47
2019-05-18T22:37:04.253Z,15.41
2019-05-18T22:39:31.888Z,15.38
2019-05-18T22:41:59.532Z,15.42
2019-05-18T22:44:27.023Z,15.49
2019-05-18T22:46:54.512Z,15.58
2019-05-18T22:49:21.988Z,15.57
2019-05-18T22:51:49.426Z,15.50
2019-05-18T22:54:16.893Z,15.42
2019-05-18T22:56:44.343Z,15.38
2019-05-18T22:59:12.514Z,15.38
2019-05-18T23:01:39.976Z,15.38
2019-05-18T23:04:07.423Z,15.38
2019-05-18T23:06:34.891Z,15.36
2019-05-18T23:09:03.356Z,15.32
2019-05-18T23:11:30.927Z,15.27
2019-05-18T23:13:58.418Z,15.27
2019-05-18T23:16:25.877Z,15.24
2019-05-18T23:18:56.856Z,15.26
2019-05-18T23:21:20.858Z,15.25
2019-05-18T23:23:48.318Z,15.25
2019-05-18T23:26:15.775Z,15.20
2019-05-18T23:28:43.275Z,15.22
2019-05-18T23:31:11.025Z,15.27
2019-05-18T23:33:38.564Z,15.28
2019-05-18T23:36:06.092Z,15.28
2019-05-18T23:38:33.570Z,15.26
2019-05-18T23:41:01.113Z,15.24
2019-05-18T23:43:28.594Z,15.20
2019-05-18T23:45:56.126Z,15.13
2019-05-18T23:48:23.694Z,15.08
2019-05-18T23:50:51.242Z,15.04
2019-05-18T23:53:18.753Z,15.03
2019-05-18T23:55:46.210Z,14.96
2019-05-18T23:58:13.760Z,14.88
